Highland, Ohio
Current Conditions -  °F | °C
As of 9:54 PM on Saturday 25 Oct 2014 (Local Time) from KILN Reporting Station
Clear Clear  
Wind Chill: 62°   Ceiling: Unl
Heat Index: 62°   Visibility: 10mi
Dew Point: 50°   Wind: 7mph
Humidity: 65%   Direction: 260°W
Pressure: 29.89"   Gusts: NA
Location:  39.34°N, 83.6°W
Report Text: KILN 260154Z AUTO 26006KT 10SM CLR 17/10 A2989 RMK AO2 SLP125 T01670100
Loading
Personal Weather Stations






























Interactive Weather Map
Tropical Storm Tracking
New forecast layout! Learn more

10-Day Weather Forecast

Advertisements
Track Severe Weather on mobile